LOWILOWS

Guest
Details From LOWI - Innsbruck Kranebitten
To LOWS - Salzburg Maxglan
Flight Number -
Tags Generated
Created
Modified
Stats Distance 75 nm / 139 km
Max Altitude 0 ft / 0 m
Waypoints 2
Social Downloads 3
Likes 0
Share VATSIM

Download

Looking for another format? Having issues loading an existing format? Contact us
Advertisement - Login to hide

Notes

Generated

Route

LOWI LOWS

ID Type Via Altitude Latitude Longitude Leg Dist Tot Dist Heading (true) Name
O LOWI APT - 0 ft / 0 m 47.25883˚ 11.33091˚ - 0 nm - -
O LOWS APT - 0 ft / 0 m 47.80472˚ 12.99717˚ 75 nm 75 nm 64° / 65° -

Altitude Profile

Advertisement - Login to hide

LOWI

Details ICAO LOWI (INN)
Name Innsbruck Kranebitten
Region Austria
Timezone Europe/Vienna (UTC+2.0)
Stats Elevation 1,906 ft / 581 m (AMSL)
Location 47.260226° 11.343967°
Runways 1
Magnetic Variation 3.071° E

METAR

LOWI 230050Z AUTO VRB02KT 9999 NSC 12/08 Q1015

Decode

TAF

TAF LOWI 222315Z 2300/2324 27005KT 9999 FEW060 SCT100 TX24/2314Z TN13/2304Z BECMG 2309/2311 08007KT TEMPO 2313/2320 VRB10G25KT -SHRA FEW060CB BKN100 PROB30 TEMPO 2313/2320 VRB15G25KT TSRA FEW050CB BKN070

Decode

Departure Runways

ID Width Length Bearing (true) Bearing (mag) Surface Threshold Offset Overrun Length
08 148 ft / 45 m 6,545 ft / 1,995 m 81.02° 77.95° Asphalt 338 ft / 103 m 0 ft / 0 m
26 148 ft / 45 m 6,545 ft / 1,995 m 261.04° 257.97° Asphalt 0 ft / 0 m 0 ft / 0 m

LOWS

Details ICAO LOWS (SZG)
Name Salzburg Maxglan
Region Austria
Timezone Europe/Vienna (UTC+2.0)
Stats Elevation 1,411 ft / 430 m (AMSL)
Location 47.793333° 13.004333°
Runways 1
Magnetic Variation 3.479° E

METAR

LOWS 230050Z AUTO 13003KT 100V160 9999 FEW100 11/09 Q1014

Decode

TAF

TAF LOWS 222315Z 2300/2324 13004KT CAVOK TX24/2314Z TN13/2304Z BECMG 2308/2310 01006KT 9999 FEW050 BKN300 TEMPO 2312/2322 SCT050 FEW060TCU PROB40 TEMPO 2315/2321 VRB15G25KT 4000 TSRA SCT050CB BKN070 BECMG 2318/2320 15005KT

Decode

Destination Runways

ID Width Length Bearing (true) Bearing (mag) Surface Threshold Offset Overrun Length
16 148 ft / 45 m 9,024 ft / 2,751 m 157.08° 153.60° Concrete 656 ft / 200 m 0 ft / 0 m
34 148 ft / 45 m 9,024 ft / 2,751 m 337.09° 333.61° Concrete 787 ft / 240 m 0 ft / 0 m

Approach Navaids

Runway Type Ident Frequency Range Bearing (true) Bearing (mag) Slope Elevation
16 Localiser OES 109.90 MHz 18 nm / 33 km 157.53° 154.05° - 1,411 ft / 430 m (AMSL)
16 Glidescope OES 109.90 MHz 10 nm / 19 km 157.09° 153.61° 3.00° 1,446 ft / 441 m (AMSL)
16 DME OES 109.90 MHz 18 nm / 33 km - - - 1,446 ft / 441 m (AMSL)

Popular Alternatives